sensor_id;sensor_type;location;lat;lon;timestamp;temperature;humidity
488;DHT22;16586;48.976;9.584;2023-02-28T00:00:39;0.90;47.40
488;DHT22;16586;48.976;9.584;2023-02-28T00:03:06;0.90;47.20
488;DHT22;16586;48.976;9.584;2023-02-28T00:05:34;0.90;47.40
488;DHT22;16586;48.976;9.584;2023-02-28T00:08:01;0.70;47.70
488;DHT22;16586;48.976;9.584;2023-02-28T00:10:29;0.90;47.90
488;DHT22;16586;48.976;9.584;2023-02-28T00:13:00;0.90;46.70
488;DHT22;16586;48.976;9.584;2023-02-28T00:15:27;0.90;47.20
488;DHT22;16586;48.976;9.584;2023-02-28T00:17:53;0.90;48.00
488;DHT22;16586;48.976;9.584;2023-02-28T00:20:20;0.70;48.00
488;DHT22;16586;48.976;9.584;2023-02-28T00:22:50;0.90;48.10
488;DHT22;16586;48.976;9.584;2023-02-28T00:25:21;0.00;47.10
488;DHT22;16586;48.976;9.584;2023-02-28T00:27:48;0.80;49.70
488;DHT22;16586;48.976;9.584;2023-02-28T00:30:17;0.90;48.20
488;DHT22;16586;48.976;9.584;2023-02-28T00:32:44;1.90;49.30
488;DHT22;16586;48.976;9.584;2023-02-28T00:35:12;0.40;48.70
488;DHT22;16586;48.976;9.584;2023-02-28T00:37:39;0.50;48.70
488;DHT22;16586;48.976;9.584;2023-02-28T00:40:08;0.70;48.90
488;DHT22;16586;48.976;9.584;2023-02-28T00:42:37;0.90;49.50
488;DHT22;16586;48.976;9.584;2023-02-28T00:45:05;0.50;49.90
488;DHT22;16586;48.976;9.584;2023-02-28T00:47:32;0.80;49.40
488;DHT22;16586;48.976;9.584;2023-02-28T00:49:59;0.60;49.60
488;DHT22;16586;48.976;9.584;2023-02-28T00:52:26;0.60;50.50
488;DHT22;16586;48.976;9.584;2023-02-28T00:54:53;0.90;50.50
488;DHT22;16586;48.976;9.584;2023-02-28T00:57:21;0.80;50.00
488;DHT22;16586;48.976;9.584;2023-02-28T00:59:48;0.60;50.90
488;DHT22;16586;48.976;9.584;2023-02-28T01:02:14;1.10;51.90
488;DHT22;16586;48.976;9.584;2023-02-28T01:04:41;0.60;50.20
488;DHT22;16586;48.976;9.584;2023-02-28T01:07:08;0.70;50.10
488;DHT22;16586;48.976;9.584;2023-02-28T01:09:35;0.50;50.00
488;DHT22;16586;48.976;9.584;2023-02-28T01:12:02;0.90;51.80
488;DHT22;16586;48.976;9.584;2023-02-28T01:14:30;0.80;52.30
488;DHT22;16586;48.976;9.584;2023-02-28T01:16:57;0.50;51.40
488;DHT22;16586;48.976;9.584;2023-02-28T01:19:24;0.30;50.90
488;DHT22;16586;48.976;9.584;2023-02-28T01:21:50;0.60;51.40
488;DHT22;16586;48.976;9.584;2023-02-28T01:24:17;0.70;50.30
488;DHT22;16586;48.976;9.584;2023-02-28T01:26:44;0.60;50.20
488;DHT22;16586;48.976;9.584;2023-02-28T01:29:11;0.60;50.70
488;DHT22;16586;48.976;9.584;2023-02-28T01:31:39;0.60;50.50
488;DHT22;16586;48.976;9.584;2023-02-28T01:34:05;0.70;50.80
488;DHT22;16586;48.976;9.584;2023-02-28T01:36:32;0.70;51.00
488;DHT22;16586;48.976;9.584;2023-02-28T01:39:00;0.70;52.80
488;DHT22;16586;48.976;9.584;2023-02-28T01:41:29;0.60;50.90
488;DHT22;16586;48.976;9.584;2023-02-28T01:47:12;2.10;54.50
488;DHT22;16586;48.976;9.584;2023-02-28T01:49:39;0.60;52.60
488;DHT22;16586;48.976;9.584;2023-02-28T01:54:34;0.70;51.20
488;DHT22;16586;48.976;9.584;2023-02-28T01:57:04;0.60;52.70
488;DHT22;16586;48.976;9.584;2023-02-28T01:59:34;0.70;51.60
488;DHT22;16586;48.976;9.584;2023-02-28T02:02:02;0.70;52.80
488;DHT22;16586;48.976;9.584;2023-02-28T02:04:35;0.50;51.80
488;DHT22;16586;48.976;9.584;2023-02-28T02:07:16;0.60;50.80
488;DHT22;16586;48.976;9.584;2023-02-28T02:09:43;0.50;51.10
488;DHT22;16586;48.976;9.584;2023-02-28T02:12:16;0.40;52.50
488;DHT22;16586;48.976;9.584;2023-02-28T02:14:58;0.20;52.60
488;DHT22;16586;48.976;9.584;2023-02-28T02:17:32;0.40;52.20
488;DHT22;16586;48.976;9.584;2023-02-28T02:23:32;0.60;52.20
488;DHT22;16586;48.976;9.584;2023-02-28T02:26:08;0.70;52.20
488;DHT22;16586;48.976;9.584;2023-02-28T02:28:56;0.60;53.20
488;DHT22;16586;48.976;9.584;2023-02-28T02:31:54;2.70;55.00
488;DHT22;16586;48.976;9.584;2023-02-28T02:34:42;0.80;52.70
488;DHT22;16586;48.976;9.584;2023-02-28T02:37:25;0.80;52.70
488;DHT22;16586;48.976;9.584;2023-02-28T02:39:59;0.50;53.40
488;DHT22;16586;48.976;9.584;2023-02-28T02:42:29;0.70;53.70
488;DHT22;16586;48.976;9.584;2023-02-28T02:45:03;0.70;52.80
488;DHT22;16586;48.976;9.584;2023-02-28T02:47:33;0.90;53.90
488;DHT22;16586;48.976;9.584;2023-02-28T02:50:07;0.90;52.20
488;DHT22;16586;48.976;9.584;2023-02-28T02:52:38;1.10;54.20
488;DHT22;16586;48.976;9.584;2023-02-28T02:57:38;0.90;53.10
488;DHT22;16586;48.976;9.584;2023-02-28T03:00:09;1.00;54.10
488;DHT22;16586;48.976;9.584;2023-02-28T03:02:37;1.10;54.40
488;DHT22;16586;48.976;9.584;2023-02-28T03:05:12;0.50;52.90
488;DHT22;16586;48.976;9.584;2023-02-28T03:07:43;1.00;53.90
488;DHT22;16586;48.976;9.584;2023-02-28T03:10:29;0.70;53.10
488;DHT22;16586;48.976;9.584;2023-02-28T03:13:04;1.20;54.20
488;DHT22;16586;48.976;9.584;2023-02-28T03:15:39;0.70;52.80
488;DHT22;16586;48.976;9.584;2023-02-28T03:18:10;1.30;54.10
488;DHT22;16586;48.976;9.584;2023-02-28T03:20:50;1.00;53.60
488;DHT22;16586;48.976;9.584;2023-02-28T03:23:22;0.90;53.80
488;DHT22;16586;48.976;9.584;2023-02-28T03:25:56;0.90;53.30
488;DHT22;16586;48.976;9.584;2023-02-28T03:28:31;0.50;53.50
488;DHT22;16586;48.976;9.584;2023-02-28T03:31:02;0.80;54.00
488;DHT22;16586;48.976;9.584;2023-02-28T03:33:36;0.50;54.70
488;DHT22;16586;48.976;9.584;2023-02-28T03:38:37;0.90;54.00
488;DHT22;16586;48.976;9.584;2023-02-28T03:43:40;1.10;53.50
488;DHT22;16586;48.976;9.584;2023-02-28T03:46:10;1.10;53.20
488;DHT22;16586;48.976;9.584;2023-02-28T03:48:42;1.00;54.00
488;DHT22;16586;48.976;9.584;2023-02-28T03:51:15;1.20;54.50
488;DHT22;16586;48.976;9.584;2023-02-28T03:53:46;1.30;53.60
488;DHT22;16586;48.976;9.584;2023-02-28T03:58:48;1.30;53.80
488;DHT22;16586;48.976;9.584;2023-02-28T04:01:19;1.20;54.50
488;DHT22;16586;48.976;9.584;2023-02-28T04:06:18;1.30;53.10
488;DHT22;16586;48.976;9.584;2023-02-28T04:08:46;0.60;54.20
488;DHT22;16586;48.976;9.584;2023-02-28T04:11:20;1.20;54.60
488;DHT22;16586;48.976;9.584;2023-02-28T04:13:47;1.80;55.10
488;DHT22;16586;48.976;9.584;2023-02-28T04:16:14;1.00;54.20
488;DHT22;16586;48.976;9.584;2023-02-28T04:18:42;0.90;55.20
488;DHT22;16586;48.976;9.584;2023-02-28T04:21:10;1.00;54.30
488;DHT22;16586;48.976;9.584;2023-02-28T04:23:38;1.00;54.60
488;DHT22;16586;48.976;9.584;2023-02-28T04:26:05;1.20;55.50
488;DHT22;16586;48.976;9.584;2023-02-28T04:28:32;1.10;55.20
488;DHT22;16586;48.976;9.584;2023-02-28T04:31:01;1.10;56.20
488;DHT22;16586;48.976;9.584;2023-02-28T04:33:30;1.00;54.70
488;DHT22;16586;48.976;9.584;2023-02-28T04:35:58;1.00;54.50
488;DHT22;16586;48.976;9.584;2023-02-28T04:38:28;1.00;54.80
488;DHT22;16586;48.976;9.584;2023-02-28T04:40:58;1.10;55.40
488;DHT22;16586;48.976;9.584;2023-02-28T04:43:26;1.20;55.70
488;DHT22;16586;48.976;9.584;2023-02-28T04:45:53;1.40;55.30
488;DHT22;16586;48.976;9.584;2023-02-28T04:48:22;0.70;55.30
488;DHT22;16586;48.976;9.584;2023-02-28T04:50:49;1.10;55.50
488;DHT22;16586;48.976;9.584;2023-02-28T04:53:16;1.50;55.20
488;DHT22;16586;48.976;9.584;2023-02-28T04:55:43;1.20;55.00
488;DHT22;16586;48.976;9.584;2023-02-28T04:58:11;1.20;55.60
488;DHT22;16586;48.976;9.584;2023-02-28T05:00:40;1.20;55.80
488;DHT22;16586;48.976;9.584;2023-02-28T05:03:07;1.10;55.40
488;DHT22;16586;48.976;9.584;2023-02-28T05:05:35;1.10;55.00
488;DHT22;16586;48.976;9.584;2023-02-28T05:08:02;1.30;53.90
488;DHT22;16586;48.976;9.584;2023-02-28T05:10:28;2.10;55.90
488;DHT22;16586;48.976;9.584;2023-02-28T05:12:55;1.20;55.10
488;DHT22;16586;48.976;9.584;2023-02-28T05:15:23;1.20;55.30
488;DHT22;16586;48.976;9.584;2023-02-28T05:17:53;1.00;54.70
488;DHT22;16586;48.976;9.584;2023-02-28T05:20:20;1.30;54.00
488;DHT22;16586;48.976;9.584;2023-02-28T05:22:47;1.30;53.90
488;DHT22;16586;48.976;9.584;2023-02-28T05:25:17;1.20;53.90
488;DHT22;16586;48.976;9.584;2023-02-28T05:27:44;1.30;53.90
488;DHT22;16586;48.976;9.584;2023-02-28T05:30:12;1.50;55.40
488;DHT22;16586;48.976;9.584;2023-02-28T05:32:40;1.40;53.40
488;DHT22;16586;48.976;9.584;2023-02-28T05:35:09;1.20;53.70
488;DHT22;16586;48.976;9.584;2023-02-28T05:37:36;1.30;54.00
488;DHT22;16586;48.976;9.584;2023-02-28T05:40:04;1.30;54.70
488;DHT22;16586;48.976;9.584;2023-02-28T05:42:32;1.40;54.10
488;DHT22;16586;48.976;9.584;2023-02-28T05:44:59;1.10;54.20
488;DHT22;16586;48.976;9.584;2023-02-28T05:47:26;1.10;54.30
488;DHT22;16586;48.976;9.584;2023-02-28T05:49:54;1.00;54.30
488;DHT22;16586;48.976;9.584;2023-02-28T05:52:21;1.20;54.70
488;DHT22;16586;48.976;9.584;2023-02-28T05:54:48;1.30;53.70
488;DHT22;16586;48.976;9.584;2023-02-28T05:57:15;1.30;53.50
488;DHT22;16586;48.976;9.584;2023-02-28T05:59:42;1.30;53.40
488;DHT22;16586;48.976;9.584;2023-02-28T06:02:12;1.40;54.30
488;DHT22;16586;48.976;9.584;2023-02-28T06:04:39;1.50;53.80
488;DHT22;16586;48.976;9.584;2023-02-28T06:07:08;1.30;55.30
488;DHT22;16586;48.976;9.584;2023-02-28T06:09:35;1.30;54.10
488;DHT22;16586;48.976;9.584;2023-02-28T06:12:04;0.50;53.80
488;DHT22;16586;48.976;9.584;2023-02-28T06:14:33;1.40;54.80
488;DHT22;16586;48.976;9.584;2023-02-28T06:17:01;1.30;53.30
488;DHT22;16586;48.976;9.584;2023-02-28T06:19:28;1.30;53.80
488;DHT22;16586;48.976;9.584;2023-02-28T06:21:56;1.20;56.00
488;DHT22;16586;48.976;9.584;2023-02-28T06:24:28;0.70;54.40
488;DHT22;16586;48.976;9.584;2023-02-28T06:26:58;1.20;53.80
488;DHT22;16586;48.976;9.584;2023-02-28T06:29:33;1.20;54.10
488;DHT22;16586;48.976;9.584;2023-02-28T06:32:04;1.40;54.20
488;DHT22;16586;48.976;9.584;2023-02-28T06:34:36;1.30;54.50
488;DHT22;16586;48.976;9.584;2023-02-28T06:37:07;1.80;54.20
488;DHT22;16586;48.976;9.584;2023-02-28T06:39:41;1.30;53.70
488;DHT22;16586;48.976;9.584;2023-02-28T06:42:12;3.00;55.70
488;DHT22;16586;48.976;9.584;2023-02-28T06:44:39;1.60;54.10
488;DHT22;16586;48.976;9.584;2023-02-28T06:47:06;1.90;53.90
488;DHT22;16586;48.976;9.584;2023-02-28T06:49:35;1.20;53.30
488;DHT22;16586;48.976;9.584;2023-02-28T06:52:02;1.20;54.50
488;DHT22;16586;48.976;9.584;2023-02-28T06:54:32;1.90;55.10
488;DHT22;16586;48.976;9.584;2023-02-28T06:57:14;2.00;54.10
488;DHT22;16586;48.976;9.584;2023-02-28T07:00:03;3.80;56.00
488;DHT22;16586;48.976;9.584;2023-02-28T07:02:33;1.50;52.80
488;DHT22;16586;48.976;9.584;2023-02-28T07:05:00;1.60;54.70
488;DHT22;16586;48.976;9.584;2023-02-28T07:07:27;1.80;55.50
488;DHT22;16586;48.976;9.584;2023-02-28T07:09:54;1.60;55.50
488;DHT22;16586;48.976;9.584;2023-02-28T07:12:22;1.50;55.40
488;DHT22;16586;48.976;9.584;2023-02-28T07:14:49;1.60;53.30
488;DHT22;16586;48.976;9.584;2023-02-28T07:17:15;1.60;54.50
488;DHT22;16586;48.976;9.584;2023-02-28T07:19:42;1.70;54.80
488;DHT22;16586;48.976;9.584;2023-02-28T07:22:09;1.70;53.40
488;DHT22;16586;48.976;9.584;2023-02-28T07:24:36;3.20;54.90
488;DHT22;16586;48.976;9.584;2023-02-28T07:27:03;2.40;53.90
488;DHT22;16586;48.976;9.584;2023-02-28T07:29:32;1.80;53.30
488;DHT22;16586;48.976;9.584;2023-02-28T07:32:02;1.90;54.10
488;DHT22;16586;48.976;9.584;2023-02-28T07:34:29;2.40;53.40
488;DHT22;16586;48.976;9.584;2023-02-28T07:37:29;2.00;52.60
488;DHT22;16586;48.976;9.584;2023-02-28T07:39:59;2.80;53.60
488;DHT22;16586;48.976;9.584;2023-02-28T07:42:33;3.00;53.50
488;DHT22;16586;48.976;9.584;2023-02-28T07:45:05;1.50;52.90
488;DHT22;16586;48.976;9.584;2023-02-28T07:47:32;1.70;53.50
488;DHT22;16586;48.976;9.584;2023-02-28T07:50:02;1.70;53.10
488;DHT22;16586;48.976;9.584;2023-02-28T07:52:31;1.90;53.40
488;DHT22;16586;48.976;9.584;2023-02-28T07:54:58;2.00;53.00
488;DHT22;16586;48.976;9.584;2023-02-28T07:57:25;2.10;53.20
488;DHT22;16586;48.976;9.584;2023-02-28T07:59:55;1.80;54.50
488;DHT22;16586;48.976;9.584;2023-02-28T08:02:35;2.50;53.90
488;DHT22;16586;48.976;9.584;2023-02-28T08:05:05;1.80;53.90
488;DHT22;16586;48.976;9.584;2023-02-28T08:07:32;2.20;53.50
488;DHT22;16586;48.976;9.584;2023-02-28T08:12:27;1.80;53.20
488;DHT22;16586;48.976;9.584;2023-02-28T08:14:53;2.00;55.20
488;DHT22;16586;48.976;9.584;2023-02-28T08:17:20;1.70;54.70
488;DHT22;16586;48.976;9.584;2023-02-28T08:19:48;2.50;54.90
488;DHT22;16586;48.976;9.584;2023-02-28T08:24:43;1.90;53.50
488;DHT22;16586;48.976;9.584;2023-02-28T08:27:09;2.00;55.20
488;DHT22;16586;48.976;9.584;2023-02-28T08:29:37;1.60;54.20
488;DHT22;16586;48.976;9.584;2023-02-28T08:32:04;1.80;54.00
488;DHT22;16586;48.976;9.584;2023-02-28T08:34:31;2.00;54.10
488;DHT22;16586;48.976;9.584;2023-02-28T08:36:59;2.00;54.20
488;DHT22;16586;48.976;9.584;2023-02-28T08:39:29;2.00;54.70
488;DHT22;16586;48.976;9.584;2023-02-28T08:41:56;1.90;55.40
488;DHT22;16586;48.976;9.584;2023-02-28T08:46:52;2.10;53.90
488;DHT22;16586;48.976;9.584;2023-02-28T08:49:19;1.70;54.90
488;DHT22;16586;48.976;9.584;2023-02-28T08:51:46;2.10;53.40
488;DHT22;16586;48.976;9.584;2023-02-28T08:54:14;2.20;55.10
488;DHT22;16586;48.976;9.584;2023-02-28T08:56:44;2.10;54.50
488;DHT22;16586;48.976;9.584;2023-02-28T08:59:11;2.50;53.60
488;DHT22;16586;48.976;9.584;2023-02-28T09:01:38;2.50;55.40
488;DHT22;16586;48.976;9.584;2023-02-28T09:04:06;2.50;52.70
488;DHT22;16586;48.976;9.584;2023-02-28T09:06:34;2.60;52.80
488;DHT22;16586;48.976;9.584;2023-02-28T09:09:01;2.30;54.90
488;DHT22;16586;48.976;9.584;2023-02-28T09:11:31;4.00;56.30
488;DHT22;16586;48.976;9.584;2023-02-28T09:13:58;2.20;53.30
488;DHT22;16586;48.976;9.584;2023-02-28T09:16:26;2.80;52.60
488;DHT22;16586;48.976;9.584;2023-02-28T09:18:53;2.90;51.90
488;DHT22;16586;48.976;9.584;2023-02-28T09:21:20;3.10;51.90
488;DHT22;16586;48.976;9.584;2023-02-28T09:23:47;5.90;56.30
488;DHT22;16586;48.976;9.584;2023-02-28T09:41:04;4.40;49.20
488;DHT22;16586;48.976;9.584;2023-02-28T09:43:40;4.60;50.00
488;DHT22;16586;48.976;9.584;2023-02-28T09:46:18;4.70;49.20
488;DHT22;16586;48.976;9.584;2023-02-28T09:48:50;5.10;47.80
488;DHT22;16586;48.976;9.584;2023-02-28T09:51:28;4.50;48.60
488;DHT22;16586;48.976;9.584;2023-02-28T09:53:56;4.40;46.60
488;DHT22;16586;48.976;9.584;2023-02-28T10:09:06;5.10;45.70
488;DHT22;16586;48.976;9.584;2023-02-28T10:11:36;5.10;45.30
488;DHT22;16586;48.976;9.584;2023-02-28T10:16:41;5.20;45.80
488;DHT22;16586;48.976;9.584;2023-02-28T10:21:44;5.50;46.10
488;DHT22;16586;48.976;9.584;2023-02-28T10:26:47;6.00;44.00
488;DHT22;16586;48.976;9.584;2023-02-28T10:32:06;6.20;43.90
488;DHT22;16586;48.976;9.584;2023-02-28T10:45:06;7.70;46.20
488;DHT22;16586;48.976;9.584;2023-02-28T10:47:35;8.50;44.00
488;DHT22;16586;48.976;9.584;2023-02-28T10:52:53;9.40;41.30
488;DHT22;16586;48.976;9.584;2023-02-28T10:55:23;10.70;41.40
488;DHT22;16586;48.976;9.584;2023-02-28T10:57:51;9.90;39.50
488;DHT22;16586;48.976;9.584;2023-02-28T11:02:48;9.90;39.30
488;DHT22;16586;48.976;9.584;2023-02-28T11:05:27;10.20;39.60
488;DHT22;16586;48.976;9.584;2023-02-28T11:10:27;12.50;40.00
488;DHT22;16586;48.976;9.584;2023-02-28T11:15:33;15.90;33.60
488;DHT22;16586;48.976;9.584;2023-02-28T11:18:21;17.40;31.40
488;DHT22;16586;48.976;9.584;2023-02-28T11:20:51;16.70;30.40
488;DHT22;16586;48.976;9.584;2023-02-28T11:23:19;16.20;30.10
488;DHT22;16586;48.976;9.584;2023-02-28T11:25:49;15.60;29.80
488;DHT22;16586;48.976;9.584;2023-02-28T11:28:26;15.40;29.60
488;DHT22;16586;48.976;9.584;2023-02-28T11:31:15;14.30;30.00
488;DHT22;16586;48.976;9.584;2023-02-28T11:33:47;13.60;30.00
488;DHT22;16586;48.976;9.584;2023-02-28T11:36:19;12.80;29.70
488;DHT22;16586;48.976;9.584;2023-02-28T11:38:47;12.40;30.90
488;DHT22;16586;48.976;9.584;2023-02-28T11:41:44;13.10;33.50
488;DHT22;16586;48.976;9.584;2023-02-28T11:44:26;11.70;31.40
488;DHT22;16586;48.976;9.584;2023-02-28T11:52:18;13.90;34.90
488;DHT22;16586;48.976;9.584;2023-02-28T11:57:43;17.10;29.80
488;DHT22;16586;48.976;9.584;2023-02-28T12:00:32;18.60;29.10
488;DHT22;16586;48.976;9.584;2023-02-28T12:03:14;19.60;29.10
488;DHT22;16586;48.976;9.584;2023-02-28T12:05:46;20.90;28.80
488;DHT22;16586;48.976;9.584;2023-02-28T12:08:34;21.70;28.50
488;DHT22;16586;48.976;9.584;2023-02-28T12:11:11;21.40;27.30
488;DHT22;16586;48.976;9.584;2023-02-28T12:13:48;21.40;27.00
488;DHT22;16586;48.976;9.584;2023-02-28T12:19:16;19.50;25.60
488;DHT22;16586;48.976;9.584;2023-02-28T12:22:12;19.70;26.40
488;DHT22;16586;48.976;9.584;2023-02-28T12:25:18;17.30;26.00
488;DHT22;16586;48.976;9.584;2023-02-28T12:27:48;16.40;27.20
488;DHT22;16586;48.976;9.584;2023-02-28T12:30:18;14.30;27.10
488;DHT22;16586;48.976;9.584;2023-02-28T12:32:48;13.60;27.00
488;DHT22;16586;48.976;9.584;2023-02-28T12:35:25;12.80;27.10
488;DHT22;16586;48.976;9.584;2023-02-28T12:37:57;12.20;28.80
488;DHT22;16586;48.976;9.584;2023-02-28T12:40:28;11.50;28.40
488;DHT22;16586;48.976;9.584;2023-02-28T12:43:02;11.10;29.30
488;DHT22;16586;48.976;9.584;2023-02-28T12:45:39;10.70;30.30
488;DHT22;16586;48.976;9.584;2023-02-28T12:48:09;10.20;30.60
488;DHT22;16586;48.976;9.584;2023-02-28T12:50:39;10.90;33.10
488;DHT22;16586;48.976;9.584;2023-02-28T12:53:09;9.80;33.90
488;DHT22;16586;48.976;9.584;2023-02-28T12:55:45;9.30;33.20
488;DHT22;16586;48.976;9.584;2023-02-28T12:58:16;10.60;34.90
488;DHT22;16586;48.976;9.584;2023-02-28T13:01:02;9.80;35.20
488;DHT22;16586;48.976;9.584;2023-02-28T13:03:49;9.60;34.40
488;DHT22;16586;48.976;9.584;2023-02-28T13:06:39;9.90;35.00
488;DHT22;16586;48.976;9.584;2023-02-28T13:09:10;10.90;34.30
488;DHT22;16586;48.976;9.584;2023-02-28T13:11:43;9.40;34.20
488;DHT22;16586;48.976;9.584;2023-02-28T13:14:22;9.30;33.90
488;DHT22;16586;48.976;9.584;2023-02-28T13:17:11;10.90;35.50
488;DHT22;16586;48.976;9.584;2023-02-28T13:19:42;9.30;35.90
488;DHT22;16586;48.976;9.584;2023-02-28T13:22:17;9.00;34.60
488;DHT22;16586;48.976;9.584;2023-02-28T13:24:47;8.80;34.60
488;DHT22;16586;48.976;9.584;2023-02-28T13:27:31;10.20;36.60
488;DHT22;16586;48.976;9.584;2023-02-28T13:29:59;9.10;37.00
488;DHT22;16586;48.976;9.584;2023-02-28T13:32:33;9.70;36.50
488;DHT22;16586;48.976;9.584;2023-02-28T13:35:36;9.20;36.20
488;DHT22;16586;48.976;9.584;2023-02-28T13:38:22;10.20;37.50
488;DHT22;16586;48.976;9.584;2023-02-28T13:40:49;10.60;37.50
488;DHT22;16586;48.976;9.584;2023-02-28T13:43:18;9.60;35.50
488;DHT22;16586;48.976;9.584;2023-02-28T13:46:08;9.70;35.90
488;DHT22;16586;48.976;9.584;2023-02-28T13:48:37;10.80;35.00
488;DHT22;16586;48.976;9.584;2023-02-28T13:51:36;10.00;33.30
488;DHT22;16586;48.976;9.584;2023-02-28T13:54:26;10.30;34.00
488;DHT22;16586;48.976;9.584;2023-02-28T13:57:10;10.80;34.90
488;DHT22;16586;48.976;9.584;2023-02-28T13:59:52;10.80;35.70
488;DHT22;16586;48.976;9.584;2023-02-28T14:02:37;11.70;35.50
488;DHT22;16586;48.976;9.584;2023-02-28T14:05:14;15.20;37.20
488;DHT22;16586;48.976;9.584;2023-02-28T14:07:46;14.20;32.50
488;DHT22;16586;48.976;9.584;2023-02-28T14:10:26;15.10;30.00
488;DHT22;16586;48.976;9.584;2023-02-28T14:13:00;15.40;30.10
488;DHT22;16586;48.976;9.584;2023-02-28T14:15:46;16.60;29.70
488;DHT22;16586;48.976;9.584;2023-02-28T14:18:28;15.90;28.80
488;DHT22;16586;48.976;9.584;2023-02-28T14:21:08;15.40;28.80
488;DHT22;16586;48.976;9.584;2023-02-28T14:26:54;15.50;30.40
488;DHT22;16586;48.976;9.584;2023-02-28T14:32:41;15.60;28.90
488;DHT22;16586;48.976;9.584;2023-02-28T14:35:20;16.90;30.00
488;DHT22;16586;48.976;9.584;2023-02-28T14:37:49;15.60;29.00
488;DHT22;16586;48.976;9.584;2023-02-28T14:40:19;15.00;28.30
488;DHT22;16586;48.976;9.584;2023-02-28T14:42:54;14.70;28.80
488;DHT22;16586;48.976;9.584;2023-02-28T14:45:23;14.20;28.30
488;DHT22;16586;48.976;9.584;2023-02-28T14:47:52;13.90;28.70
488;DHT22;16586;48.976;9.584;2023-02-28T14:50:21;13.50;29.20
488;DHT22;16586;48.976;9.584;2023-02-28T14:52:52;13.70;29.10
488;DHT22;16586;48.976;9.584;2023-02-28T14:55:24;13.40;29.50
488;DHT22;16586;48.976;9.584;2023-02-28T14:57:54;13.40;29.40
488;DHT22;16586;48.976;9.584;2023-02-28T15:00:24;13.40;29.60
488;DHT22;16586;48.976;9.584;2023-02-28T15:02:55;13.40;29.20
488;DHT22;16586;48.976;9.584;2023-02-28T15:05:28;13.50;29.70
488;DHT22;16586;48.976;9.584;2023-02-28T15:08:10;13.60;30.00
488;DHT22;16586;48.976;9.584;2023-02-28T15:10:38;12.80;30.30
488;DHT22;16586;48.976;9.584;2023-02-28T15:13:07;12.80;30.70
488;DHT22;16586;48.976;9.584;2023-02-28T15:15:41;13.70;32.40
488;DHT22;16586;48.976;9.584;2023-02-28T15:18:30;12.70;31.60
488;DHT22;16586;48.976;9.584;2023-02-28T15:21:01;10.80;30.00
488;DHT22;16586;48.976;9.584;2023-02-28T15:23:29;12.60;32.10
488;DHT22;16586;48.976;9.584;2023-02-28T15:25:57;10.90;32.80
488;DHT22;16586;48.976;9.584;2023-02-28T15:28:24;10.60;33.10
488;DHT22;16586;48.976;9.584;2023-02-28T15:30:54;11.30;34.30
488;DHT22;16586;48.976;9.584;2023-02-28T15:33:24;11.40;34.20
488;DHT22;16586;48.976;9.584;2023-02-28T15:36:04;10.00;32.70
488;DHT22;16586;48.976;9.584;2023-02-28T15:38:34;10.90;34.50
488;DHT22;16586;48.976;9.584;2023-02-28T15:41:01;9.60;34.90
488;DHT22;16586;48.976;9.584;2023-02-28T15:43:34;10.30;34.80
488;DHT22;16586;48.976;9.584;2023-02-28T15:46:10;10.10;35.10
488;DHT22;16586;48.976;9.584;2023-02-28T15:48:44;9.30;34.60
488;DHT22;16586;48.976;9.584;2023-02-28T15:51:18;9.20;34.50
488;DHT22;16586;48.976;9.584;2023-02-28T15:53:51;10.20;35.50
488;DHT22;16586;48.976;9.584;2023-02-28T15:56:24;9.00;35.90
488;DHT22;16586;48.976;9.584;2023-02-28T15:58:53;8.50;35.30
488;DHT22;16586;48.976;9.584;2023-02-28T16:01:24;8.30;37.10
488;DHT22;16586;48.976;9.584;2023-02-28T16:03:53;9.00;37.90
488;DHT22;16586;48.976;9.584;2023-02-28T16:06:36;7.90;37.20
488;DHT22;16586;48.976;9.584;2023-02-28T16:09:05;8.20;37.20
488;DHT22;16586;48.976;9.584;2023-02-28T16:11:35;7.90;37.30
488;DHT22;16586;48.976;9.584;2023-02-28T16:14:03;7.40;38.40
488;DHT22;16586;48.976;9.584;2023-02-28T16:16:31;7.10;39.40
488;DHT22;16586;48.976;9.584;2023-02-28T16:18:58;6.80;38.20
488;DHT22;16586;48.976;9.584;2023-02-28T16:21:25;7.00;38.90
488;DHT22;16586;48.976;9.584;2023-02-28T16:23:53;6.90;39.40
488;DHT22;16586;48.976;9.584;2023-02-28T16:26:23;6.70;39.80
488;DHT22;16586;48.976;9.584;2023-02-28T16:28:53;7.40;40.30
488;DHT22;16586;48.976;9.584;2023-02-28T16:31:20;6.80;40.00
488;DHT22;16586;48.976;9.584;2023-02-28T16:33:47;6.50;40.70
488;DHT22;16586;48.976;9.584;2023-02-28T16:36:16;6.70;40.90
488;DHT22;16586;48.976;9.584;2023-02-28T16:38:46;6.40;39.40
488;DHT22;16586;48.976;9.584;2023-02-28T16:41:17;6.80;40.20
488;DHT22;16586;48.976;9.584;2023-02-28T16:43:46;6.30;40.00
488;DHT22;16586;48.976;9.584;2023-02-28T16:46:14;6.20;40.60
488;DHT22;16586;48.976;9.584;2023-02-28T16:48:42;8.20;44.10
488;DHT22;16586;48.976;9.584;2023-02-28T16:51:12;6.00;41.40
488;DHT22;16586;48.976;9.584;2023-02-28T16:53:39;6.20;42.90
488;DHT22;16586;48.976;9.584;2023-02-28T16:56:06;5.70;43.40
488;DHT22;16586;48.976;9.584;2023-02-28T16:58:37;5.40;44.70
488;DHT22;16586;48.976;9.584;2023-02-28T17:01:05;5.40;42.60
488;DHT22;16586;48.976;9.584;2023-02-28T17:03:32;5.70;43.60
488;DHT22;16586;48.976;9.584;2023-02-28T17:05:59;5.10;42.90
488;DHT22;16586;48.976;9.584;2023-02-28T17:08:25;4.90;44.10
488;DHT22;16586;48.976;9.584;2023-02-28T17:10:54;6.10;45.10
488;DHT22;16586;48.976;9.584;2023-02-28T17:13:20;4.90;44.70
488;DHT22;16586;48.976;9.584;2023-02-28T17:15:49;4.90;46.20
488;DHT22;16586;48.976;9.584;2023-02-28T17:18:18;6.00;46.10
488;DHT22;16586;48.976;9.584;2023-02-28T17:20:45;4.70;44.00
488;DHT22;16586;48.976;9.584;2023-02-28T17:23:12;4.60;44.60
488;DHT22;16586;48.976;9.584;2023-02-28T17:25:39;4.50;44.70
488;DHT22;16586;48.976;9.584;2023-02-28T17:28:06;5.40;45.80
488;DHT22;16586;48.976;9.584;2023-02-28T17:30:34;4.30;45.10
488;DHT22;16586;48.976;9.584;2023-02-28T17:33:02;4.40;45.40
488;DHT22;16586;48.976;9.584;2023-02-28T17:35:29;4.50;44.30
488;DHT22;16586;48.976;9.584;2023-02-28T17:37:56;4.30;45.00
488;DHT22;16586;48.976;9.584;2023-02-28T17:40:25;4.30;45.20
488;DHT22;16586;48.976;9.584;2023-02-28T17:42:52;4.20;46.20
488;DHT22;16586;48.976;9.584;2023-02-28T17:45:20;4.10;44.70
488;DHT22;16586;48.976;9.584;2023-02-28T17:47:48;4.00;46.90
488;DHT22;16586;48.976;9.584;2023-02-28T17:50:18;3.80;46.40
488;DHT22;16586;48.976;9.584;2023-02-28T17:52:45;4.00;46.00
488;DHT22;16586;48.976;9.584;2023-02-28T17:55:12;3.90;43.70
488;DHT22;16586;48.976;9.584;2023-02-28T17:57:40;3.90;44.50
488;DHT22;16586;48.976;9.584;2023-02-28T18:00:10;4.40;44.30
488;DHT22;16586;48.976;9.584;2023-02-28T18:02:43;4.10;43.60
488;DHT22;16586;48.976;9.584;2023-02-28T18:05:11;5.20;47.30
488;DHT22;16586;48.976;9.584;2023-02-28T18:07:40;4.00;46.20
488;DHT22;16586;48.976;9.584;2023-02-28T18:12:38;3.80;46.60
488;DHT22;16586;48.976;9.584;2023-02-28T18:15:06;4.80;47.10
488;DHT22;16586;48.976;9.584;2023-02-28T18:17:32;3.70;47.60
488;DHT22;16586;48.976;9.584;2023-02-28T18:19:59;3.50;47.60
488;DHT22;16586;48.976;9.584;2023-02-28T18:22:26;4.40;49.40
488;DHT22;16586;48.976;9.584;2023-02-28T18:28:51;3.00;47.20
488;DHT22;16586;48.976;9.584;2023-02-28T18:31:19;3.40;47.80